createdAt,value
2022-10-28T00:01:21.693Z,79.36
2022-10-28T00:03:58.396Z,78.85
2022-10-28T00:06:32.834Z,79.08
2022-10-28T00:09:00.189Z,78.82
2022-10-28T00:11:30.714Z,78.90
2022-10-28T00:14:00.146Z,79.12
2022-10-28T00:16:31.116Z,78.19
2022-10-28T00:19:02.234Z,77.93
2022-10-28T00:21:32.380Z,77.31
2022-10-28T00:23:59.730Z,76.04
2022-10-28T00:26:32.195Z,76.73
2022-10-28T00:29:02.321Z,77.51
2022-10-28T00:31:31.108Z,77.76
2022-10-28T00:34:04.350Z,78.29
2022-10-28T00:36:40.458Z,78.09
2022-10-28T00:39:22.580Z,77.89
2022-10-28T00:41:53.532Z,77.53
2022-10-28T00:44:59.698Z,78.07
2022-10-28T00:47:52.906Z,78.47
2022-10-28T00:50:47.369Z,78.31
2022-10-28T00:53:28.690Z,78.47
2022-10-28T00:55:59.629Z,78.66
2022-10-28T00:58:27.517Z,78.61
2022-10-28T01:00:54.641Z,78.87
2022-10-28T01:03:21.936Z,79.13
2022-10-28T01:05:49.550Z,78.86
2022-10-28T01:08:16.998Z,78.94
2022-10-28T01:10:52.721Z,79.20
2022-10-28T01:13:50.157Z,78.72
2022-10-28T01:16:54.216Z,77.08
2022-10-28T01:19:45.600Z,76.24
2022-10-28T01:22:24.644Z,76.87
2022-10-28T01:25:36.213Z,77.84
2022-10-28T01:28:49.906Z,77.67
2022-10-28T01:31:26.022Z,77.42
2022-10-28T01:34:01.415Z,77.70
2022-10-28T01:36:36.529Z,78.34
2022-10-28T01:39:16.954Z,78.31
2022-10-28T01:42:15.504Z,78.27
2022-10-28T01:45:19.793Z,78.43
2022-10-28T01:48:05.319Z,78.29
2022-10-28T01:50:46.802Z,78.53
2022-10-28T01:53:18.986Z,78.86
2022-10-28T01:55:49.410Z,79.08
2022-10-28T01:58:21.917Z,78.79
2022-10-28T02:00:49.493Z,78.94
2022-10-28T02:03:17.358Z,79.13
2022-10-28T02:05:53.665Z,78.73
2022-10-28T02:08:46.444Z,78.87
2022-10-28T02:11:54.157Z,78.75
2022-10-28T02:14:40.095Z,77.98
2022-10-28T02:17:40.002Z,76.72
2022-10-28T02:21:00.905Z,75.55
2022-10-28T02:24:16.064Z,76.02
2022-10-28T02:26:57.901Z,76.34
2022-10-28T02:29:39.421Z,77.34
2022-10-28T02:32:13.150Z,77.39
2022-10-28T02:34:47.210Z,77.12
2022-10-28T02:37:25.152Z,76.83
2022-10-28T02:39:57.489Z,76.32
2022-10-28T02:42:37.279Z,75.81
2022-10-28T02:45:13.801Z,75.91
2022-10-28T02:47:50.831Z,75.63
2022-10-28T02:50:22.520Z,75.68
2022-10-28T02:52:55.408Z,75.85
2022-10-28T02:55:25.347Z,75.68
2022-10-28T02:57:52.526Z,75.70
2022-10-28T03:00:25.223Z,75.97
2022-10-28T03:02:52.252Z,75.77
2022-10-28T03:05:19.172Z,75.81
2022-10-28T03:07:45.927Z,75.93
2022-10-28T03:10:12.728Z,75.51
2022-10-28T03:12:39.492Z,75.27
2022-10-28T03:15:07.080Z,75.49
2022-10-28T03:17:33.853Z,75.31
2022-10-28T03:20:00.637Z,75.74
2022-10-28T03:22:27.421Z,75.73
2022-10-28T03:24:54.217Z,75.80
2022-10-28T03:27:21.019Z,75.54
2022-10-28T03:29:47.781Z,75.77
2022-10-28T03:32:14.692Z,75.76
2022-10-28T03:34:41.597Z,75.95
2022-10-28T03:37:08.458Z,75.38
2022-10-28T03:39:35.832Z,75.81
2022-10-28T03:42:02.592Z,75.54
2022-10-28T03:44:29.489Z,75.59
2022-10-28T03:46:56.274Z,75.63
2022-10-28T03:49:23.138Z,76.22
2022-10-28T03:51:49.936Z,76.41
2022-10-28T03:54:16.738Z,76.66
2022-10-28T03:56:43.556Z,76.67
2022-10-28T03:59:10.659Z,76.27
2022-10-28T04:01:37.534Z,76.30
2022-10-28T04:04:04.758Z,76.56
2022-10-28T04:06:31.558Z,75.89
2022-10-28T04:08:58.428Z,75.96
2022-10-28T04:11:25.198Z,75.48
2022-10-28T04:13:52.029Z,75.18
2022-10-28T04:16:18.822Z,75.67
2022-10-28T04:18:45.722Z,75.91
2022-10-28T04:21:12.620Z,75.85
2022-10-28T04:23:39.401Z,75.87
2022-10-28T04:26:06.215Z,75.76
2022-10-28T04:28:33.120Z,75.38
2022-10-28T04:31:01.569Z,75.63
2022-10-28T04:33:28.996Z,75.77
2022-10-28T04:35:55.776Z,75.90
2022-10-28T04:40:55.404Z,75.64
2022-10-28T04:43:22.181Z,75.46
2022-10-28T04:45:48.956Z,75.52
2022-10-28T04:48:15.739Z,75.69
2022-10-28T04:50:42.577Z,75.93
2022-10-28T04:53:09.347Z,76.27
2022-10-28T04:55:36.129Z,76.54
2022-10-28T04:58:03.050Z,76.91
2022-10-28T05:00:30.537Z,77.70
2022-10-28T05:03:01.116Z,77.40
2022-10-28T05:05:27.898Z,77.46
2022-10-28T05:07:54.996Z,78.13
2022-10-28T05:10:22.111Z,78.40
2022-10-28T05:12:48.905Z,78.52
2022-10-28T05:15:15.878Z,78.46
2022-10-28T05:17:47.263Z,79.17
2022-10-28T05:20:17.325Z,79.05
2022-10-28T05:22:50.109Z,79.04
2022-10-28T05:25:17.956Z,78.89
2022-10-28T05:27:44.889Z,78.75
2022-10-28T05:30:13.001Z,78.81
2022-10-28T05:32:39.800Z,78.72
2022-10-28T05:35:07.570Z,78.85
2022-10-28T05:37:34.499Z,78.72
2022-10-28T05:40:01.271Z,77.74
2022-10-28T05:42:28.079Z,77.42
2022-10-28T05:44:54.843Z,77.61
2022-10-28T05:47:21.625Z,77.58
2022-10-28T05:49:48.402Z,78.01
2022-10-28T05:52:15.196Z,77.90
2022-10-28T05:54:41.952Z,78.14
2022-10-28T05:57:08.827Z,77.99
2022-10-28T05:59:35.627Z,78.52
2022-10-28T06:02:02.502Z,78.84
2022-10-28T06:04:29.577Z,79.09
2022-10-28T06:06:56.379Z,78.48
2022-10-28T06:09:23.170Z,78.44
2022-10-28T06:11:48.472Z,77.83
2022-10-28T06:14:15.258Z,77.77
2022-10-28T06:16:42.314Z,76.40
2022-10-28T06:19:09.094Z,76.08
2022-10-28T06:21:35.897Z,76.44
2022-10-28T06:24:03.047Z,76.63
2022-10-28T06:26:29.917Z,75.04
2022-10-28T06:28:56.709Z,74.53
2022-10-28T06:31:23.543Z,74.31
2022-10-28T06:33:50.383Z,74.38
2022-10-28T06:36:17.159Z,73.78
2022-10-28T06:38:44.017Z,73.90
2022-10-28T06:41:10.773Z,73.71
2022-10-28T06:43:37.574Z,75.36
2022-10-28T06:46:04.411Z,74.34
2022-10-28T06:48:32.707Z,73.56
2022-10-28T06:50:59.603Z,74.27
2022-10-28T06:53:26.431Z,75.15
2022-10-28T06:55:58.009Z,75.67
2022-10-28T06:58:26.198Z,74.83
2022-10-28T07:00:53.649Z,74.26
2022-10-28T07:03:20.432Z,74.16
2022-10-28T07:05:49.890Z,73.63
2022-10-28T07:08:17.118Z,72.41
2022-10-28T07:10:43.904Z,71.77
2022-10-28T07:13:10.750Z,71.05
2022-10-28T07:15:37.548Z,70.36
2022-10-28T07:18:04.568Z,70.31
2022-10-28T07:20:32.886Z,69.03
2022-10-28T07:23:02.267Z,70.06
2022-10-28T07:25:30.775Z,69.54
2022-10-28T07:27:58.915Z,69.70
2022-10-28T07:30:26.695Z,70.00
2022-10-28T07:32:54.314Z,68.29
2022-10-28T07:35:21.851Z,63.09
2022-10-28T07:37:48.655Z,59.29
2022-10-28T07:40:15.461Z,56.51
2022-10-28T07:42:42.263Z,55.21
2022-10-28T07:45:09.542Z,54.73
2022-10-28T07:47:36.354Z,53.47
2022-10-28T07:50:03.972Z,50.79
2022-10-28T07:52:30.813Z,50.49
2022-10-28T07:54:57.710Z,49.47
2022-10-28T07:57:24.493Z,50.14
2022-10-28T07:59:51.327Z,48.07
2022-10-28T08:02:22.863Z,47.61
2022-10-28T08:04:50.028Z,47.06
2022-10-28T08:07:18.220Z,46.59
2022-10-28T08:09:45.283Z,46.59
2022-10-28T08:12:16.076Z,48.27
2022-10-28T08:14:42.976Z,48.84
2022-10-28T08:17:10.378Z,50.49
2022-10-28T08:19:37.211Z,51.66
2022-10-28T08:22:04.374Z,51.09
2022-10-28T08:24:31.141Z,52.14
2022-10-28T08:26:58.011Z,49.79
2022-10-28T08:29:29.111Z,48.26
2022-10-28T08:31:57.753Z,48.10
2022-10-28T08:34:29.331Z,46.68
2022-10-28T08:36:57.102Z,46.57
2022-10-28T08:39:23.987Z,46.21
2022-10-28T08:42:05.090Z,47.00
2022-10-28T08:45:15.765Z,46.96
2022-10-28T08:48:11.565Z,47.47
2022-10-28T08:50:58.339Z,47.13
2022-10-28T08:53:37.036Z,45.25
2022-10-28T08:56:28.130Z,44.89
2022-10-28T08:59:00.253Z,43.79
2022-10-28T09:01:47.640Z,44.02
2022-10-28T09:04:40.440Z,44.90
2022-10-28T09:07:16.703Z,45.35
2022-10-28T09:09:47.224Z,45.93
2022-10-28T09:12:50.479Z,47.61
2022-10-28T09:15:32.196Z,47.31
2022-10-28T09:18:30.727Z,46.72
2022-10-28T09:21:03.426Z,46.42
2022-10-28T09:23:32.761Z,45.02
2022-10-28T09:26:28.338Z,44.24
2022-10-28T09:29:30.987Z,43.61
2022-10-28T09:32:36.091Z,42.93
2022-10-28T09:35:25.966Z,40.98
2022-10-28T09:38:16.080Z,40.45
2022-10-28T09:40:52.381Z,40.55
2022-10-28T09:43:34.203Z,40.82
2022-10-28T09:46:07.770Z,42.35
2022-10-28T09:48:39.572Z,43.24
2022-10-28T09:51:06.436Z,44.37
2022-10-28T09:53:39.850Z,43.52
2022-10-28T09:58:45.964Z,41.46
2022-10-28T10:01:13.843Z,40.88
2022-10-28T10:03:41.782Z,40.54
2022-10-28T10:06:16.668Z,38.64
2022-10-28T10:08:45.119Z,39.20
2022-10-28T10:11:30.669Z,38.40
2022-10-28T10:14:08.429Z,37.61
2022-10-28T10:16:54.117Z,36.49
2022-10-28T10:19:21.183Z,34.54
2022-10-28T10:21:49.941Z,34.85
2022-10-28T10:24:36.026Z,35.49
2022-10-28T10:27:10.178Z,33.63
2022-10-28T10:29:44.648Z,33.43
2022-10-28T10:32:30.768Z,33.39
2022-10-28T10:35:34.712Z,32.16
2022-10-28T10:38:05.358Z,31.11
2022-10-28T10:40:50.247Z,30.99
2022-10-28T10:43:34.456Z,30.07
2022-10-28T10:46:05.198Z,30.37
2022-10-28T10:48:38.802Z,32.13
2022-10-28T10:51:22.458Z,33.10
2022-10-28T10:53:54.617Z,33.51
2022-10-28T10:56:33.113Z,34.43
2022-10-28T10:59:22.331Z,35.46
2022-10-28T11:01:49.428Z,35.96
2022-10-28T11:04:18.926Z,35.41
2022-10-28T11:06:52.459Z,36.00
2022-10-28T11:09:39.067Z,36.91
2022-10-28T11:12:15.901Z,36.91
2022-10-28T11:15:01.486Z,35.48
2022-10-28T11:20:30.949Z,34.55
2022-10-28T11:23:42.400Z,34.27
2022-10-28T11:26:13.879Z,34.98
2022-10-28T11:29:07.499Z,35.69
2022-10-28T11:31:52.374Z,35.15
2022-10-28T11:34:56.354Z,34.91
2022-10-28T11:37:39.120Z,33.12
2022-10-28T11:40:54.883Z,32.27
2022-10-28T11:43:54.593Z,31.72
2022-10-28T11:46:43.394Z,31.77
2022-10-28T11:49:28.647Z,30.00
2022-10-28T11:52:29.897Z,29.28
2022-10-28T11:55:39.805Z,29.07
2022-10-28T11:58:44.066Z,28.99
2022-10-28T12:01:49.586Z,27.01
2022-10-28T12:05:16.886Z,26.84
2022-10-28T12:08:30.864Z,29.24
2022-10-28T12:11:21.555Z,29.64
2022-10-28T12:14:03.530Z,30.72
2022-10-28T12:16:45.244Z,31.06
2022-10-28T12:19:35.942Z,32.56
2022-10-28T12:22:22.094Z,33.08
2022-10-28T12:24:50.816Z,34.14
2022-10-28T12:27:26.293Z,34.24
2022-10-28T12:30:00.095Z,34.52
2022-10-28T12:32:31.321Z,34.14
2022-10-28T12:35:17.847Z,34.30
2022-10-28T12:38:15.381Z,34.09
2022-10-28T12:40:49.515Z,34.78
2022-10-28T12:43:30.178Z,35.25
2022-10-28T12:45:57.644Z,35.61
2022-10-28T12:48:45.691Z,35.78
2022-10-28T12:51:25.671Z,36.89
2022-10-28T12:54:04.821Z,37.32
2022-10-28T12:56:49.070Z,38.06
2022-10-28T12:59:35.469Z,38.50
2022-10-28T13:02:04.523Z,39.02
2022-10-28T13:04:31.575Z,39.58
2022-10-28T13:07:17.081Z,40.01
2022-10-28T13:13:26.627Z,40.77
2022-10-28T13:16:37.800Z,42.12
2022-10-28T13:19:49.229Z,42.63
2022-10-28T13:22:46.244Z,43.59
2022-10-28T13:25:58.628Z,44.40
2022-10-28T13:28:35.203Z,45.88
2022-10-28T13:31:07.316Z,44.72
2022-10-28T13:33:37.380Z,44.15
2022-10-28T13:36:30.113Z,43.72
2022-10-28T13:39:00.836Z,39.79
2022-10-28T13:41:30.780Z,35.53
2022-10-28T13:44:08.596Z,32.13
2022-10-28T13:47:00.309Z,31.02
2022-10-28T13:49:37.600Z,30.56
2022-10-28T13:52:07.298Z,30.44
2022-10-28T13:54:42.600Z,29.54
2022-10-28T13:57:30.961Z,29.92
2022-10-28T14:00:22.204Z,28.88
2022-10-28T14:02:58.871Z,27.86
2022-10-28T14:05:38.210Z,28.48
2022-10-28T14:08:26.950Z,30.30
2022-10-28T14:11:23.049Z,30.36
2022-10-28T14:13:55.844Z,28.17
2022-10-28T14:16:30.353Z,28.11
2022-10-28T14:19:11.265Z,27.63
2022-10-28T14:22:02.447Z,27.60
2022-10-28T14:24:44.752Z,27.22
2022-10-28T14:27:43.931Z,27.33
2022-10-28T14:30:20.188Z,27.93
2022-10-28T14:32:49.761Z,28.78
2022-10-28T14:35:16.554Z,29.00
2022-10-28T14:38:22.583Z,30.11
2022-10-28T14:41:30.065Z,31.20
2022-10-28T14:44:23.679Z,31.56
2022-10-28T14:47:48.917Z,32.94
2022-10-28T14:50:26.455Z,32.89
2022-10-28T14:52:55.571Z,33.16
2022-10-28T14:55:32.886Z,32.96
2022-10-28T14:58:37.111Z,34.47
2022-10-28T15:01:18.790Z,36.20
2022-10-28T15:04:01.003Z,38.69
2022-10-28T15:06:40.551Z,41.01
2022-10-28T15:09:25.378Z,43.06
2022-10-28T15:12:06.464Z,44.47
2022-10-28T15:14:42.406Z,45.70
2022-10-28T15:17:17.194Z,46.90
2022-10-28T15:19:53.473Z,47.81
2022-10-28T15:22:24.902Z,49.76
2022-10-28T15:25:10.498Z,51.13
2022-10-28T15:27:40.874Z,51.95
2022-10-28T15:30:23.678Z,52.54
2022-10-28T15:32:55.402Z,52.55
2022-10-28T15:35:32.725Z,52.80
2022-10-28T15:38:01.987Z,53.17
2022-10-28T15:40:34.664Z,54.70
2022-10-28T15:43:17.907Z,55.39
2022-10-28T15:45:45.831Z,55.88
2022-10-28T15:48:15.218Z,57.66
2022-10-28T15:50:42.376Z,57.99
2022-10-28T15:53:12.468Z,58.21
2022-10-28T15:58:35.992Z,59.36
2022-10-28T16:01:03.042Z,59.89
2022-10-28T16:03:47.228Z,60.45
2022-10-28T16:06:40.625Z,60.98
2022-10-28T16:09:20.363Z,61.66
2022-10-28T16:11:52.004Z,62.01
2022-10-28T16:14:42.308Z,61.82
2022-10-28T16:17:20.010Z,62.28
2022-10-28T16:20:16.968Z,62.76
2022-10-28T16:22:46.549Z,63.29
2022-10-28T16:25:17.540Z,63.67
2022-10-28T16:27:44.377Z,64.27
2022-10-28T16:30:11.902Z,64.04
2022-10-28T16:32:48.835Z,64.79
2022-10-28T16:35:23.012Z,65.04
2022-10-28T16:37:54.679Z,65.16
2022-10-28T16:40:49.693Z,65.33
2022-10-28T16:43:17.029Z,65.61
2022-10-28T16:45:43.836Z,65.49
2022-10-28T16:48:16.196Z,66.13
2022-10-28T16:51:01.800Z,66.41
2022-10-28T16:53:29.235Z,66.38
2022-10-28T16:55:58.928Z,66.79
2022-10-28T16:58:29.125Z,66.59
2022-10-28T17:00:57.512Z,66.94
2022-10-28T17:03:24.597Z,67.51
2022-10-28T17:05:52.057Z,67.73
2022-10-28T17:08:36.114Z,67.54
2022-10-28T17:11:04.620Z,67.60
2022-10-28T17:13:31.960Z,67.49
2022-10-28T17:15:58.747Z,67.80
2022-10-28T17:18:25.574Z,67.85
2022-10-28T17:21:02.945Z,68.34
2022-10-28T17:23:30.319Z,68.66
2022-10-28T17:26:02.366Z,68.86
2022-10-28T17:28:29.701Z,68.80
2022-10-28T17:31:05.267Z,69.59
2022-10-28T17:33:32.428Z,69.84
2022-10-28T17:36:08.541Z,69.96
2022-10-28T17:38:35.766Z,69.91
2022-10-28T17:41:02.639Z,69.96
2022-10-28T17:43:29.447Z,70.14
2022-10-28T17:46:07.216Z,70.55
2022-10-28T17:48:34.792Z,70.72
2022-10-28T17:51:01.710Z,70.97
2022-10-28T17:53:28.527Z,70.89
2022-10-28T17:56:00.383Z,71.35
2022-10-28T17:58:28.189Z,71.75
2022-10-28T18:01:08.647Z,71.88
2022-10-28T18:03:39.193Z,71.71
2022-10-28T18:06:13.138Z,71.94
2022-10-28T18:08:43.184Z,72.12
2022-10-28T18:11:13.736Z,72.10
2022-10-28T18:13:45.051Z,72.47
2022-10-28T18:16:16.192Z,72.65
2022-10-28T18:18:43.752Z,72.63
2022-10-28T18:21:11.933Z,72.31
2022-10-28T18:23:41.167Z,72.38
2022-10-28T18:26:14.524Z,72.71
2022-10-28T18:28:44.059Z,72.85
2022-10-28T18:31:14.557Z,72.46
2022-10-28T18:33:43.393Z,72.02
2022-10-28T18:36:33.979Z,71.50
2022-10-28T18:39:03.206Z,71.04
2022-10-28T18:41:32.146Z,70.70
2022-10-28T18:44:02.476Z,70.35
2022-10-28T18:46:33.188Z,69.77
2022-10-28T18:51:28.666Z,68.63
2022-10-28T18:53:57.012Z,67.87
2022-10-28T18:56:29.398Z,67.51
2022-10-28T18:58:58.112Z,66.97
2022-10-28T19:01:27.913Z,66.54
2022-10-28T19:03:57.575Z,65.49
2022-10-28T19:06:26.217Z,64.97
2022-10-28T19:08:57.619Z,65.12
2022-10-28T19:11:30.277Z,65.05
2022-10-28T19:14:05.882Z,64.24
2022-10-28T19:16:34.452Z,64.35
2022-10-28T19:19:03.597Z,64.27
2022-10-28T19:21:31.066Z,63.80
2022-10-28T19:23:58.352Z,64.10
2022-10-28T19:26:25.622Z,65.10
2022-10-28T19:28:52.945Z,66.03
2022-10-28T19:31:23.612Z,67.39
2022-10-28T19:33:53.983Z,68.36
2022-10-28T19:36:23.353Z,69.64
2022-10-28T19:38:53.950Z,70.04
2022-10-28T19:41:24.809Z,70.19
2022-10-28T19:43:58.926Z,69.90
2022-10-28T19:46:31.949Z,69.80
2022-10-28T19:49:01.208Z,70.43
2022-10-28T19:51:31.749Z,70.39
2022-10-28T19:54:05.627Z,69.49
2022-10-28T19:56:35.711Z,70.08
2022-10-28T19:59:04.467Z,70.66
2022-10-28T20:01:36.000Z,71.35
2022-10-28T20:04:04.259Z,71.38
2022-10-28T20:06:34.551Z,71.11
2022-10-28T20:09:01.896Z,71.48
2022-10-28T20:11:32.697Z,71.57
2022-10-28T20:14:04.039Z,71.80
2022-10-28T20:16:32.847Z,71.99
2022-10-28T20:19:00.394Z,72.06
2022-10-28T20:21:30.613Z,72.29
2022-10-28T20:23:58.160Z,72.35
2022-10-28T20:26:34.596Z,72.51
2022-10-28T20:29:03.057Z,72.73
2022-10-28T20:31:32.091Z,72.82
2022-10-28T20:34:03.415Z,73.33
2022-10-28T20:36:36.905Z,73.17
2022-10-28T20:39:12.559Z,73.21
2022-10-28T20:41:40.640Z,73.10
2022-10-28T20:44:08.110Z,73.52
2022-10-28T20:46:35.546Z,73.47
2022-10-28T20:49:03.488Z,73.18
2022-10-28T20:51:32.459Z,73.42
2022-10-28T20:54:00.079Z,73.08
2022-10-28T20:56:30.360Z,72.96
2022-10-28T20:59:00.883Z,72.90
2022-10-28T21:01:31.025Z,73.00
2022-10-28T21:04:00.824Z,72.86
2022-10-28T21:06:29.095Z,72.97
2022-10-28T21:08:56.560Z,73.20
2022-10-28T21:11:24.531Z,73.34
2022-10-28T21:13:58.523Z,73.61
2022-10-28T21:16:27.366Z,73.29
2022-10-28T21:18:54.660Z,73.78
2022-10-28T21:21:23.840Z,74.03
2022-10-28T21:23:51.146Z,74.13
2022-10-28T21:26:17.966Z,74.12
2022-10-28T21:28:48.764Z,74.14
2022-10-28T21:31:18.005Z,74.26
2022-10-28T21:33:45.498Z,74.17
2022-10-28T21:36:18.468Z,74.09
2022-10-28T21:38:45.600Z,74.02
2022-10-28T21:41:20.178Z,73.95
2022-10-28T21:43:50.178Z,73.80
2022-10-28T21:46:21.870Z,73.73
2022-10-28T21:48:48.988Z,73.96
2022-10-28T21:51:17.077Z,74.15
2022-10-28T21:53:45.153Z,74.00
2022-10-28T21:56:17.659Z,73.65
2022-10-28T21:58:47.402Z,73.84
2022-10-28T22:01:22.270Z,73.89
2022-10-28T22:03:51.000Z,73.83
2022-10-28T22:06:17.826Z,73.54
2022-10-28T22:08:44.824Z,73.56
2022-10-28T22:11:20.749Z,73.65
2022-10-28T22:14:02.584Z,73.88
2022-10-28T22:16:32.787Z,73.91
2022-10-28T22:19:03.360Z,73.76
2022-10-28T22:21:33.929Z,73.81
2022-10-28T22:24:01.080Z,74.12
2022-10-28T22:26:30.610Z,73.99
2022-10-28T22:28:58.120Z,73.69
2022-10-28T22:31:28.720Z,74.01
2022-10-28T22:33:56.911Z,73.51
2022-10-28T22:36:26.487Z,73.52
2022-10-28T22:38:53.723Z,73.71
2022-10-28T22:41:23.953Z,74.13
2022-10-28T22:43:56.599Z,73.67
2022-10-28T22:46:27.381Z,73.61
2022-10-28T22:48:54.958Z,74.02
2022-10-28T22:51:22.784Z,73.82
2022-10-28T22:53:49.883Z,73.95
2022-10-28T22:56:20.297Z,74.16
2022-10-28T22:58:48.578Z,74.51
2022-10-28T23:01:18.847Z,74.26
2022-10-28T23:03:48.717Z,74.30
2022-10-28T23:06:18.137Z,74.64
2022-10-28T23:08:45.842Z,74.86
2022-10-28T23:11:14.840Z,74.89
2022-10-28T23:13:41.674Z,74.70
2022-10-28T23:16:11.743Z,74.82
2022-10-28T23:18:39.053Z,75.22
2022-10-28T23:21:23.716Z,75.28
2022-10-28T23:23:59.092Z,75.47
2022-10-28T23:26:28.650Z,75.64
2022-10-28T23:28:58.743Z,75.65
2022-10-28T23:31:26.456Z,75.59
2022-10-28T23:33:54.892Z,75.76
2022-10-28T23:36:22.263Z,75.62
2022-10-28T23:38:49.083Z,75.83
2022-10-28T23:41:18.707Z,75.73
2022-10-28T23:43:47.104Z,75.96
2022-10-28T23:46:13.949Z,76.02
2022-10-28T23:48:40.753Z,75.84
2022-10-28T23:51:08.095Z,76.54
2022-10-28T23:53:35.293Z,76.81
2022-10-28T23:56:02.102Z,76.30
2022-10-28T23:58:28.970Z,76.50
